メインページ
METAR-TAF:

METAR-TAF

空港 :

ラアス・アル=ハイマ国際空港

ラアス・アル=ハイマ, アラブ首長国連邦

緯度: 25-37N, 経度: 055-56E, 海抜: 31m

現時点の気象観測

当レポートは52分前の22:00(UTC)に作成
東/北東の風 2kt
気温 19°C
湿度 68%
気圧 1021 hPa
視程10km以上
高度4000ftの雲はほとんどない

METAR: OMRK 152200Z 06002KT 9999 FEW040 19/13 Q1021 A3016

時間: 02:52 (22:52 UTC)

予報

当レポートは5時間52分前の17:00(UTC)に作成
予報は15日の 18時(UTC)から 17日の 00時(UTC)まで有効
東/南東の風 5kt
視程10km以上
高度4000ftの雲はほとんどない
確率 40%
16日の 10時(UTC)から 16日の 14時(UTC)まで
の風 10kt

TAF: OMRK 151700Z 1518/1700 12005KT 9999 FEW040 PROB40 1610/1614 35010KT

4,000以上の空港の気象観測と天気予報(METAR報とTAF報)

利用可能な観測所は地図上に黄色い丸と赤い丸で示す。

丸の上にカーソルを重ねると観測所名を参照できる。

次にクリックすると気象観測と天気予報を参照できる。

マップの切り替え:黒色「×」印の緑ボタンをクリックして拡大、「-」印の緑ボタンをクリックして縮小、緑色の三角印をクリックして隣りの地図に切り替え


METAR-TAF: